Time;durP1;ratioP1;P1;durP2;ratioP2;P2;SDS_P1;SDS_P2;PMS_P1;PMS_P2;Temp;Humidity;BMP_temperature;BMP_pressure;BME280_temperature;BME280_humidity;BME280_pressure;Samples;Min_cycle;Max_cycle;Signal;HPM_P1;HPM_P2
2022/12/16 00:01:05;;;;;;;15.60;11.90;;;;;;;;;;5030927;28;20501;-58
2022/12/16 00:03:31;;;;;;;14.43;11.37;;;;;;;;;;5030776;28;20518;-58
2022/12/16 00:05:57;;;;;;;15.27;10.90;;;;;;;;;;5031257;28;20808;-58
2022/12/16 00:08:24;;;;;;;16.10;11.23;;;;;;;;;;5031482;28;20440;-58
2022/12/16 00:10:53;;;;;;;15.73;12.30;;;;;;;;;;5031398;28;20450;-58
2022/12/16 00:13:19;;;;;;;16.00;12.20;;;;;;;;;;5031220;28;20443;-58
2022/12/16 00:15:46;;;;;;;14.20;11.07;;;;;;;;;;5031368;28;20436;-58
2022/12/16 00:18:14;;;;;;;17.13;11.80;;;;;;;;;;5031215;28;20460;-58
2022/12/16 00:20:43;;;;;;;18.07;12.43;;;;;;;;;;5031462;28;20427;-58
2022/12/16 00:23:09;;;;;;;17.90;11.80;;;;;;;;;;5031185;28;20432;-58
2022/12/16 00:25:36;;;;;;;15.73;11.47;;;;;;;;;;5031324;28;20454;-58
2022/12/16 00:28:02;;;;;;;15.73;11.80;;;;;;;;;;5031113;28;20211;-58
2022/12/16 00:30:28;;;;;;;17.40;11.57;;;;;;;;;;5031292;28;20436;-58
2022/12/16 00:32:54;;;;;;;16.77;12.63;;;;;;;;;;5031229;28;20679;-58
2022/12/16 00:35:20;;;;;;;18.20;12.87;;;;;;;;;;5030942;28;20462;-58
2022/12/16 00:37:46;;;;;;;17.90;11.77;;;;;;;;;;5030939;28;20440;-58
2022/12/16 00:40:13;;;;;;;15.87;11.50;;;;;;;;;;5011366;28;20504;-57
2022/12/16 00:42:40;;;;;;;15.27;11.53;;;;;;;;;;5019858;28;20535;-58
2022/12/16 00:45:06;;;;;;;16.67;12.07;;;;;;;;;;5031704;28;20475;-58
2022/12/16 00:47:32;;;;;;;15.90;12.47;;;;;;;;;;5034816;28;20439;-58
2022/12/16 00:49:58;;;;;;;16.93;12.13;;;;;;;;;;5034517;28;20439;-58
2022/12/16 00:52:24;;;;;;;17.93;11.93;;;;;;;;;;5034634;28;20493;-58
2022/12/16 00:54:50;;;;;;;17.37;11.47;;;;;;;;;;5034016;28;20431;-58
2022/12/16 00:57:16;;;;;;;17.20;12.90;;;;;;;;;;5034276;28;20451;-58
2022/12/16 00:59:44;;;;;;;18.23;12.27;;;;;;;;;;5034377;28;20663;-58
2022/12/16 01:02:10;;;;;;;13.57;10.97;;;;;;;;;;5034282;28;20435;-59
2022/12/16 01:04:36;;;;;;;14.20;11.63;;;;;;;;;;5034355;28;20478;-59
2022/12/16 01:07:02;;;;;;;14.80;11.03;;;;;;;;;;5033669;28;21021;-58
2022/12/16 01:09:28;;;;;;;17.50;11.33;;;;;;;;;;5034164;28;20427;-58
2022/12/16 01:11:54;;;;;;;17.23;11.20;;;;;;;;;;5034205;28;20976;-58
2022/12/16 01:14:20;;;;;;;16.27;10.63;;;;;;;;;;5034229;28;20439;-58
2022/12/16 01:16:47;;;;;;;13.93;10.83;;;;;;;;;;5034158;28;20447;-58
2022/12/16 01:19:13;;;;;;;12.93;10.63;;;;;;;;;;5033558;28;20462;-58
2022/12/16 01:21:39;;;;;;;13.77;10.23;;;;;;;;;;5034168;28;20427;-58
2022/12/16 01:24:06;;;;;;;13.33;10.40;;;;;;;;;;5033630;28;20981;-58
2022/12/16 01:26:32;;;;;;;15.27;11.30;;;;;;;;;;5033849;28;20932;-58
2022/12/16 01:28:58;;;;;;;13.97;10.57;;;;;;;;;;5033736;28;20444;-58
2022/12/16 01:31:24;;;;;;;15.03;10.63;;;;;;;;;;5033870;28;20442;-58
2022/12/16 01:33:51;;;;;;;12.00;9.77;;;;;;;;;;5033863;28;20530;-58
2022/12/16 01:36:18;;;;;;;14.60;10.97;;;;;;;;;;5033458;28;20959;-58
2022/12/16 01:38:45;;;;;;;13.80;10.63;;;;;;;;;;5033480;28;20518;-58
2022/12/16 01:41:11;;;;;;;12.60;9.90;;;;;;;;;;5033537;28;20431;-58
2022/12/16 01:43:37;;;;;;;15.90;11.23;;;;;;;;;;5033394;28;20514;-59
2022/12/16 01:46:07;;;;;;;13.93;10.40;;;;;;;;;;5033351;28;20428;-58
2022/12/16 01:48:38;;;;;;;14.20;10.10;;;;;;;;;;5033573;28;20439;-58
2022/12/16 01:51:07;;;;;;;14.93;10.70;;;;;;;;;;5033081;28;20428;-58
2022/12/16 01:53:35;;;;;;;16.43;11.13;;;;;;;;;;5033220;28;20791;-58
2022/12/16 01:56:01;;;;;;;15.03;10.60;;;;;;;;;;5032618;28;20471;-58
2022/12/16 01:58:30;;;;;;;14.27;11.03;;;;;;;;;;5029773;28;20810;-55
2022/12/16 02:00:56;;;;;;;14.27;10.27;;;;;;;;;;5033325;28;20432;-54
2022/12/16 02:03:22;;;;;;;15.17;10.03;;;;;;;;;;5033322;28;20808;-56
2022/12/16 02:05:48;;;;;;;15.73;11.30;;;;;;;;;;5033158;28;20209;-56
2022/12/16 02:08:17;;;;;;;14.13;10.67;;;;;;;;;;5032949;28;20974;-56
2022/12/16 02:10:48;;;;;;;14.60;11.13;;;;;;;;;;5032951;28;20855;-56
2022/12/16 02:13:18;;;;;;;14.93;10.60;;;;;;;;;;5032931;28;20954;-56
2022/12/16 02:15:49;;;;;;;14.17;10.70;;;;;;;;;;5032929;28;20527;-57
2022/12/16 02:18:22;;;;;;;17.17;10.43;;;;;;;;;;5032855;28;20957;-56
2022/12/16 02:21:07;;;;;;;15.40;11.17;;;;;;;;;;5032843;28;20501;-56
2022/12/16 02:23:53;;;;;;;14.37;10.50;;;;;;;;;;5032785;28;20432;-56
2022/12/16 02:26:37;;;;;;;14.70;11.70;;;;;;;;;;5032669;28;20455;-56
2022/12/16 02:29:13;;;;;;;18.30;11.80;;;;;;;;;;5032495;28;20435;-56
2022/12/16 02:31:43;;;;;;;15.43;11.93;;;;;;;;;;5032888;28;20443;-56
2022/12/16 02:34:13;;;;;;;17.87;11.30;;;;;;;;;;5032679;28;20455;-56
2022/12/16 02:36:55;;;;;;;17.77;12.93;;;;;;;;;;5032577;28;20443;-56
2022/12/16 02:39:23;;;;;;;19.93;12.17;;;;;;;;;;5032396;28;20479;-56
2022/12/16 02:41:51;;;;;;;20.57;12.27;;;;;;;;;;5032509;28;20454;-56
2022/12/16 02:44:17;;;;;;;23.27;12.03;;;;;;;;;;5032197;28;20468;-57
2022/12/16 02:46:51;;;;;;;18.77;12.33;;;;;;;;;;5032346;28;21068;-56
2022/12/16 02:49:36;;;;;;;17.90;12.37;;;;;;;;;;5032156;28;20805;-56
2022/12/16 02:52:02;;;;;;;20.27;12.47;;;;;;;;;;5032092;28;20840;-56
2022/12/16 02:54:28;;;;;;;23.23;14.47;;;;;;;;;;5032441;28;20482;-56
2022/12/16 02:57:01;;;;;;;21.17;13.70;;;;;;;;;;5032352;28;20444;-56
2022/12/16 02:59:31;;;;;;;18.27;13.30;;;;;;;;;;5032057;28;20451;-56
2022/12/16 03:02:04;;;;;;;23.13;13.40;;;;;;;;;;5032288;28;20443;-56
2022/12/16 03:04:34;;;;;;;19.70;13.30;;;;;;;;;;5031870;28;20989;-56
2022/12/16 03:07:01;;;;;;;20.87;14.13;;;;;;;;;;5031737;28;20448;-56
2022/12/16 03:09:29;;;;;;;17.80;12.87;;;;;;;;;;5031534;28;20926;-56
2022/12/16 03:11:56;;;;;;;19.17;12.33;;;;;;;;;;5031987;28;20431;-56
2022/12/16 03:14:24;;;;;;;20.97;11.63;;;;;;;;;;5031998;28;20448;-56
2022/12/16 03:16:51;;;;;;;18.23;12.13;;;;;;;;;;5031899;28;20793;-56
2022/12/16 03:19:19;;;;;;;19.20;13.20;;;;;;;;;;5031712;28;20447;-57
2022/12/16 03:21:48;;;;;;;19.37;12.93;;;;;;;;;;5031802;28;20523;-56
2022/12/16 03:24:14;;;;;;;18.30;12.13;;;;;;;;;;5031598;28;20463;-56
2022/12/16 03:26:44;;;;;;;21.97;12.13;;;;;;;;;;5031829;28;20432;-56
2022/12/16 03:29:12;;;;;;;15.87;12.17;;;;;;;;;;5031885;28;20973;-56
2022/12/16 03:31:39;;;;;;;18.47;12.17;;;;;;;;;;5031918;28;20435;-56
2022/12/16 03:34:09;;;;;;;21.93;12.57;;;;;;;;;;5031411;28;20495;-56
2022/12/16 03:36:37;;;;;;;17.20;12.10;;;;;;;;;;5031713;28;20447;-56
2022/12/16 03:39:04;;;;;;;19.03;12.20;;;;;;;;;;5031286;28;20533;-56
2022/12/16 03:41:31;;;;;;;21.20;13.30;;;;;;;;;;5031548;28;20435;-56
2022/12/16 03:43:57;;;;;;;19.07;11.97;;;;;;;;;;5031415;28;20493;-56
2022/12/16 03:46:23;;;;;;;19.67;12.50;;;;;;;;;;5031566;28;20475;-56
2022/12/16 03:48:50;;;;;;;17.30;12.23;;;;;;;;;;5031394;28;20491;-56
2022/12/16 03:51:16;;;;;;;18.40;11.83;;;;;;;;;;5031239;28;20578;-56
2022/12/16 03:53:43;;;;;;;19.30;12.63;;;;;;;;;;5031392;28;20432;-56
2022/12/16 03:56:10;;;;;;;19.30;12.23;;;;;;;;;;5031379;28;20803;-56
2022/12/16 03:58:38;;;;;;;18.23;11.83;;;;;;;;;;5031426;28;20432;-56
2022/12/16 04:01:04;;;;;;;16.40;11.07;;;;;;;;;;5031282;28;20432;-57
2022/12/16 04:03:30;;;;;;;15.20;11.17;;;;;;;;;;5031187;28;20440;-56
2022/12/16 04:05:56;;;;;;;17.13;11.67;;;;;;;;;;5031235;28;20498;-57
2022/12/16 04:08:22;;;;;;;15.23;10.57;;;;;;;;;;5031194;28;20862;-56
2022/12/16 04:24:35;;;;;;;13.27;9.90;;;;;;;;;;5035280;28;20498;-56
2022/12/16 04:34:24;;;;;;;14.80;10.67;;;;;;;;;;5035000;28;20458;-56
